createdAt,value
2023-05-20T00:00:56.431Z,1.00
2023-05-20T00:03:23.948Z,1.00
2023-05-20T00:05:51.416Z,1.00
2023-05-20T00:08:22.287Z,1.00
2023-05-20T00:10:52.560Z,29.50
2023-05-20T00:13:19.909Z,99.90
2023-05-20T00:15:47.273Z,63.00
2023-05-20T00:18:14.618Z,99.90
2023-05-20T00:20:41.948Z,99.90
2023-05-20T00:23:09.312Z,1.00
2023-05-20T00:25:39.440Z,99.90
2023-05-20T00:28:06.917Z,99.90
2023-05-20T00:30:34.300Z,1.00
2023-05-20T00:33:01.707Z,1.00
2023-05-20T00:35:33.592Z,1.00
2023-05-20T00:38:01.218Z,99.90
2023-05-20T00:40:29.122Z,99.90
2023-05-20T00:42:56.496Z,99.90
2023-05-20T00:45:23.975Z,99.90
2023-05-20T00:47:51.457Z,99.90
2023-05-20T00:50:18.923Z,1.00
2023-05-20T00:52:48.275Z,1.00
2023-05-20T00:55:17.202Z,1.00
2023-05-20T00:57:44.507Z,1.00
2023-05-20T01:00:13.664Z,99.90
2023-05-20T01:02:41.072Z,99.90
2023-05-20T01:05:08.853Z,1.00
2023-05-20T01:07:36.354Z,1.00
2023-05-20T01:10:04.107Z,1.00
2023-05-20T01:12:46.305Z,99.90
2023-05-20T01:15:16.078Z,99.20
2023-05-20T01:17:48.600Z,1.00
2023-05-20T01:20:18.884Z,1.00
2023-05-20T01:22:57.189Z,17.30
2023-05-20T01:25:27.604Z,93.60
2023-05-20T01:27:57.885Z,18.60
2023-05-20T01:30:34.004Z,78.00
2023-05-20T01:33:12.771Z,99.90
2023-05-20T01:35:41.457Z,1.00
2023-05-20T01:38:08.900Z,99.90
2023-05-20T01:40:36.697Z,99.90
2023-05-20T01:43:04.328Z,99.90
2023-05-20T01:45:32.633Z,99.90
2023-05-20T01:48:01.739Z,1.00
2023-05-20T01:50:29.179Z,99.90
2023-05-20T01:52:56.544Z,1.00
2023-05-20T01:55:24.868Z,99.90
2023-05-20T01:57:52.235Z,1.00
2023-05-20T02:00:19.522Z,1.00
2023-05-20T02:02:47.017Z,98.10
2023-05-20T02:05:14.443Z,99.90
2023-05-20T02:07:41.841Z,1.00
2023-05-20T02:10:11.765Z,1.00
2023-05-20T02:12:39.227Z,1.00
2023-05-20T02:15:07.133Z,1.00
2023-05-20T02:17:34.509Z,1.00
2023-05-20T02:20:01.912Z,99.90
2023-05-20T02:22:32.119Z,99.90
2023-05-20T02:24:59.399Z,1.00
2023-05-20T02:27:26.674Z,99.90
2023-05-20T02:29:54.127Z,99.90
2023-05-20T02:32:23.750Z,1.00
2023-05-20T02:34:51.502Z,99.90
2023-05-20T02:37:19.223Z,1.00
2023-05-20T02:39:46.528Z,1.00
2023-05-20T02:42:14.029Z,1.00
2023-05-20T02:44:41.455Z,99.90
2023-05-20T02:47:08.857Z,1.00
2023-05-20T02:49:36.373Z,1.00
2023-05-20T02:52:04.332Z,1.00
2023-05-20T02:54:31.672Z,1.00
2023-05-20T02:56:59.031Z,1.00
2023-05-20T02:59:26.694Z,57.40
2023-05-20T03:01:54.577Z,99.90
2023-05-20T03:04:22.033Z,99.90
2023-05-20T03:06:51.742Z,1.00
2023-05-20T03:09:19.540Z,99.90
2023-05-20T03:11:48.194Z,99.90
2023-05-20T03:14:15.503Z,1.00
2023-05-20T03:16:42.885Z,1.00
2023-05-20T03:19:10.285Z,99.90
2023-05-20T03:21:37.725Z,1.00
2023-05-20T03:24:05.569Z,1.00
2023-05-20T03:26:33.919Z,99.90
2023-05-20T03:29:01.228Z,99.90
2023-05-20T03:31:28.628Z,99.90
2023-05-20T03:33:55.960Z,99.90
2023-05-20T03:36:25.042Z,99.90
2023-05-20T03:38:52.397Z,99.90
2023-05-20T03:41:19.853Z,99.90
2023-05-20T03:43:47.133Z,99.90
2023-05-20T03:46:14.499Z,1.00
2023-05-20T03:48:41.972Z,25.80
2023-05-20T03:51:09.260Z,1.00
2023-05-20T03:53:36.641Z,99.90
2023-05-20T03:56:04.176Z,99.90
2023-05-20T03:58:31.588Z,99.90
2023-05-20T04:00:58.983Z,99.90
2023-05-20T04:03:28.491Z,99.90
2023-05-20T04:05:55.885Z,99.90
2023-05-20T04:08:25.957Z,99.90
2023-05-20T04:10:57.143Z,99.90
2023-05-20T04:13:29.009Z,99.90
2023-05-20T04:15:56.402Z,99.90
2023-05-20T04:18:29.887Z,99.90
2023-05-20T04:20:57.304Z,99.90
2023-05-20T04:23:24.653Z,99.90
2023-05-20T04:25:54.899Z,1.00
2023-05-20T04:28:23.912Z,99.90
2023-05-20T04:30:59.380Z,99.90
2023-05-20T04:33:30.470Z,99.90
2023-05-20T04:35:58.798Z,99.90
2023-05-20T04:38:29.924Z,99.90
2023-05-20T04:40:59.876Z,99.90
2023-05-20T04:43:30.092Z,6.60
2023-05-20T04:45:59.926Z,52.10
2023-05-20T04:48:27.450Z,99.90
2023-05-20T04:50:54.729Z,99.90
2023-05-20T04:53:23.360Z,99.90
2023-05-20T04:55:59.552Z,99.90
2023-05-20T04:58:26.949Z,99.90
2023-05-20T05:00:54.310Z,99.90
2023-05-20T05:03:21.629Z,99.90
2023-05-20T05:05:49.027Z,99.90
2023-05-20T05:08:17.324Z,99.90
2023-05-20T05:10:48.512Z,99.90
2023-05-20T05:13:15.807Z,99.90
2023-05-20T05:15:43.196Z,99.90
2023-05-20T05:18:10.702Z,99.90
2023-05-20T05:20:38.205Z,99.90
2023-05-20T05:23:06.365Z,99.90
2023-05-20T05:25:33.844Z,1.00
2023-05-20T05:28:01.329Z,1.00
2023-05-20T05:30:28.743Z,99.90
2023-05-20T05:32:56.178Z,1.00
2023-05-20T05:35:23.666Z,15.90
2023-05-20T05:37:51.096Z,1.00
2023-05-20T05:40:18.665Z,1.00
2023-05-20T05:42:46.131Z,1.00
2023-05-20T05:45:13.563Z,1.00
2023-05-20T05:47:40.923Z,1.00
2023-05-20T05:50:11.283Z,1.00
2023-05-20T05:52:38.644Z,99.90
2023-05-20T05:55:10.621Z,99.90
2023-05-20T05:57:38.223Z,99.90
2023-05-20T06:00:06.477Z,99.90
2023-05-20T06:02:36.973Z,99.90
2023-05-20T06:05:07.326Z,1.00
2023-05-20T06:07:34.664Z,99.90
2023-05-20T06:10:02.159Z,99.90
2023-05-20T06:12:29.532Z,99.90
2023-05-20T06:14:56.892Z,75.70
2023-05-20T06:17:24.183Z,1.00
2023-05-20T06:19:51.520Z,1.00
2023-05-20T06:22:18.858Z,1.00
2023-05-20T06:24:46.267Z,99.90
2023-05-20T06:27:13.720Z,99.90
2023-05-20T06:29:42.459Z,1.00
2023-05-20T06:32:14.143Z,99.90
2023-05-20T06:34:41.565Z,99.90
2023-05-20T06:37:11.798Z,99.90
2023-05-20T06:39:39.377Z,99.90
2023-05-20T06:42:06.749Z,99.90
2023-05-20T06:44:34.354Z,1.00
2023-05-20T06:47:01.799Z,1.00
2023-05-20T06:49:31.856Z,1.00
2023-05-20T06:51:59.179Z,1.00
2023-05-20T06:54:26.577Z,1.00
2023-05-20T06:56:53.944Z,1.00
2023-05-20T06:59:23.597Z,1.00
2023-05-20T07:01:50.991Z,1.00
2023-05-20T07:04:18.458Z,1.00
2023-05-20T07:06:45.942Z,99.90
2023-05-20T07:09:13.277Z,1.00
2023-05-20T07:11:40.661Z,99.90
2023-05-20T07:14:32.863Z,1.00
2023-05-20T07:17:00.259Z,1.00
2023-05-20T07:19:27.698Z,99.90
2023-05-20T07:21:55.310Z,99.90
2023-05-20T07:24:22.708Z,1.00
2023-05-20T07:26:50.092Z,99.90
2023-05-20T07:29:17.549Z,1.00
2023-05-20T07:31:44.950Z,1.00
2023-05-20T07:34:12.309Z,99.90
2023-05-20T07:36:39.620Z,99.90
2023-05-20T07:39:09.627Z,1.00
2023-05-20T07:41:41.463Z,1.00
2023-05-20T07:44:08.791Z,1.00
2023-05-20T07:46:36.227Z,1.00
2023-05-20T07:49:04.238Z,1.00
2023-05-20T07:51:31.798Z,1.00
2023-05-20T07:53:59.172Z,1.00
2023-05-20T07:56:26.646Z,1.00
2023-05-20T07:58:58.480Z,99.90
2023-05-20T08:01:27.187Z,1.00
2023-05-20T08:03:54.893Z,1.00
2023-05-20T08:06:24.270Z,99.90
2023-05-20T08:08:54.332Z,99.90
2023-05-20T08:11:22.257Z,99.90
2023-05-20T08:13:50.032Z,1.00
2023-05-20T08:16:17.433Z,1.00
2023-05-20T08:18:44.910Z,1.00
2023-05-20T08:21:12.501Z,1.00
2023-05-20T08:23:42.907Z,1.00
2023-05-20T08:26:10.288Z,1.00
2023-05-20T08:28:38.178Z,1.00
2023-05-20T08:31:05.851Z,1.00
2023-05-20T08:33:33.365Z,1.00
2023-05-20T08:36:00.917Z,1.00
2023-05-20T08:38:28.369Z,1.00
2023-05-20T08:40:57.228Z,1.00
2023-05-20T08:43:25.656Z,1.00
2023-05-20T08:45:53.053Z,1.00
2023-05-20T08:48:23.552Z,1.00
2023-05-20T08:50:52.573Z,1.00
2023-05-20T08:53:22.708Z,1.00
2023-05-20T08:55:55.504Z,1.00
2023-05-20T08:58:23.448Z,1.00
2023-05-20T09:00:53.417Z,99.90
2023-05-20T09:03:21.532Z,99.90
2023-05-20T09:05:49.059Z,1.00
2023-05-20T09:08:16.381Z,1.00
2023-05-20T09:10:43.726Z,1.00
2023-05-20T09:13:11.692Z,1.00
2023-05-20T09:15:39.337Z,1.00
2023-05-20T09:18:08.205Z,1.00
2023-05-20T09:20:37.769Z,1.00
2023-05-20T09:23:07.524Z,1.00
2023-05-20T09:25:37.179Z,1.00
2023-05-20T09:28:08.804Z,1.00
2023-05-20T09:30:36.342Z,1.00
2023-05-20T09:33:05.976Z,1.00
2023-05-20T09:35:37.540Z,1.00
2023-05-20T09:38:08.016Z,99.90
2023-05-20T09:40:37.809Z,1.00
2023-05-20T09:43:11.392Z,99.90
2023-05-20T09:45:38.977Z,99.90
2023-05-20T09:48:10.785Z,99.90
2023-05-20T09:50:39.293Z,99.90
2023-05-20T09:53:08.860Z,99.90
2023-05-20T09:55:37.027Z,99.90
2023-05-20T09:58:04.545Z,99.90
2023-05-20T10:00:32.144Z,99.90
2023-05-20T10:03:00.560Z,99.90
2023-05-20T10:05:37.396Z,99.90
2023-05-20T10:08:29.345Z,99.90
2023-05-20T10:11:24.469Z,99.90
2023-05-20T10:14:03.960Z,99.90
2023-05-20T10:17:01.490Z,99.90
2023-05-20T10:19:35.913Z,99.90
2023-05-20T10:22:04.128Z,99.90
2023-05-20T10:24:37.862Z,99.90
2023-05-20T10:27:09.588Z,99.90
2023-05-20T10:29:52.822Z,99.90
2023-05-20T10:32:29.510Z,99.90
2023-05-20T10:35:04.875Z,97.00
2023-05-20T10:37:39.977Z,81.20
2023-05-20T10:40:12.877Z,84.50
2023-05-20T10:42:41.459Z,95.70
2023-05-20T10:45:09.763Z,99.60
2023-05-20T10:47:37.592Z,99.90
2023-05-20T10:50:06.161Z,99.90
2023-05-20T10:52:36.466Z,99.90
2023-05-20T10:55:04.993Z,99.90
2023-05-20T10:57:34.168Z,99.90
2023-05-20T11:00:02.112Z,99.90
2023-05-20T11:02:30.403Z,99.90
2023-05-20T11:05:00.758Z,99.90
2023-05-20T11:07:29.491Z,99.80
2023-05-20T11:09:57.776Z,69.80
2023-05-20T11:12:27.319Z,28.30
2023-05-20T11:14:55.020Z,6.50
2023-05-20T11:17:22.429Z,1.00
2023-05-20T11:19:50.933Z,1.00
2023-05-20T11:22:18.280Z,1.00
2023-05-20T11:24:46.941Z,1.00
2023-05-20T11:27:17.165Z,1.00
2023-05-20T11:29:44.828Z,1.00
2023-05-20T11:32:12.538Z,1.00
2023-05-20T11:34:39.978Z,1.00
2023-05-20T11:37:09.437Z,1.00
2023-05-20T11:39:37.810Z,1.00
2023-05-20T11:42:06.298Z,99.90
2023-05-20T11:44:34.124Z,99.90
2023-05-20T11:47:02.494Z,99.90
2023-05-20T11:49:30.741Z,99.90
2023-05-20T11:51:58.795Z,99.90
2023-05-20T11:54:26.397Z,99.90
2023-05-20T11:56:55.599Z,99.90
2023-05-20T11:59:24.921Z,99.90
2023-05-20T12:01:52.385Z,99.90
2023-05-20T12:04:20.049Z,99.90
2023-05-20T12:06:47.417Z,99.90
2023-05-20T12:09:14.904Z,99.90
2023-05-20T12:11:42.475Z,99.90
2023-05-20T12:14:10.179Z,99.90
2023-05-20T12:16:40.337Z,99.90
2023-05-20T12:19:08.756Z,99.90
2023-05-20T12:21:36.518Z,99.90
2023-05-20T12:24:06.744Z,99.90
2023-05-20T12:26:35.436Z,1.00
2023-05-20T12:29:02.921Z,1.00
2023-05-20T12:31:32.986Z,1.00
2023-05-20T12:34:02.035Z,1.00
2023-05-20T12:36:29.381Z,1.00
2023-05-20T12:38:56.761Z,1.00
2023-05-20T12:41:24.378Z,1.00
2023-05-20T12:43:51.713Z,1.00
2023-05-20T12:46:19.136Z,1.00
2023-05-20T12:48:46.563Z,1.00
2023-05-20T12:51:13.856Z,1.00
2023-05-20T12:53:41.165Z,1.00
2023-05-20T12:56:08.815Z,1.00
2023-05-20T12:58:36.124Z,1.00
2023-05-20T13:01:03.513Z,1.00
2023-05-20T13:03:31.227Z,1.00
2023-05-20T13:05:59.372Z,1.00
2023-05-20T13:08:28.737Z,1.00
2023-05-20T13:10:56.312Z,1.00
2023-05-20T13:13:24.400Z,1.00
2023-05-20T13:15:51.717Z,1.00
2023-05-20T13:18:19.944Z,1.00
2023-05-20T13:20:47.415Z,1.00
2023-05-20T13:23:14.782Z,1.00
2023-05-20T13:25:42.865Z,1.00
2023-05-20T13:28:10.677Z,1.00
2023-05-20T13:30:38.401Z,1.00
2023-05-20T13:33:06.542Z,1.00
2023-05-20T13:35:34.153Z,1.00
2023-05-20T13:38:01.573Z,1.00
2023-05-20T13:40:28.961Z,1.00
2023-05-20T13:42:56.603Z,1.00
2023-05-20T13:45:27.637Z,1.00
2023-05-20T13:47:57.794Z,1.00
2023-05-20T13:50:34.904Z,1.00
2023-05-20T13:53:05.118Z,1.00
2023-05-20T13:55:34.739Z,1.00
2023-05-20T13:58:18.277Z,1.00
2023-05-20T14:00:46.164Z,1.00
2023-05-20T14:03:19.953Z,1.00
2023-05-20T14:05:53.738Z,1.00
2023-05-20T14:08:27.740Z,1.00
2023-05-20T14:11:00.591Z,1.00
2023-05-20T14:13:34.417Z,1.00
2023-05-20T14:16:05.878Z,1.00
2023-05-20T14:18:37.491Z,1.00
2023-05-20T14:21:20.638Z,1.00
2023-05-20T14:23:48.268Z,1.00
2023-05-20T14:26:19.794Z,1.00
2023-05-20T14:29:10.097Z,1.00
2023-05-20T14:31:42.444Z,1.00
2023-05-20T14:34:21.121Z,1.00
2023-05-20T14:36:51.788Z,99.90
2023-05-20T14:39:27.008Z,99.90
2023-05-20T14:41:56.861Z,99.90
2023-05-20T14:44:24.217Z,99.90
2023-05-20T14:46:51.824Z,99.90
2023-05-20T14:49:24.074Z,1.00
2023-05-20T14:51:53.689Z,1.00
2023-05-20T14:54:27.040Z,1.00
2023-05-20T14:56:54.896Z,1.00
2023-05-20T14:59:24.550Z,1.00
2023-05-20T15:01:56.156Z,1.00
2023-05-20T15:04:29.944Z,99.90
2023-05-20T15:06:59.479Z,99.90
2023-05-20T15:09:33.516Z,99.90
2023-05-20T15:12:13.889Z,99.90
2023-05-20T15:14:41.412Z,99.90
2023-05-20T15:17:23.349Z,99.90
2023-05-20T15:20:01.783Z,99.90
2023-05-20T15:22:44.781Z,99.90
2023-05-20T15:25:26.560Z,99.90
2023-05-20T15:27:59.029Z,99.90
2023-05-20T15:30:26.469Z,99.90
2023-05-20T15:33:01.278Z,99.90
2023-05-20T15:35:38.856Z,99.90
2023-05-20T15:38:11.583Z,1.00
2023-05-20T15:40:56.302Z,1.00
2023-05-20T15:43:23.910Z,1.00
2023-05-20T15:46:14.052Z,1.00
2023-05-20T15:48:41.693Z,99.90
2023-05-20T15:51:18.394Z,99.90
2023-05-20T15:53:55.921Z,99.90
2023-05-20T15:56:32.974Z,99.90
2023-05-20T15:59:00.526Z,99.90
2023-05-20T16:01:28.562Z,99.90
2023-05-20T16:03:58.252Z,99.90
2023-05-20T16:06:31.816Z,99.90
2023-05-20T16:09:02.691Z,99.90
2023-05-20T16:11:39.777Z,99.90
2023-05-20T16:14:11.426Z,99.90
2023-05-20T16:16:39.349Z,99.90
2023-05-20T16:19:16.284Z,99.90
2023-05-20T16:21:46.068Z,99.90
2023-05-20T16:24:13.768Z,99.90
2023-05-20T16:26:44.411Z,99.90
2023-05-20T16:29:24.534Z,99.90
2023-05-20T16:31:58.060Z,99.90
2023-05-20T16:34:25.995Z,99.90
2023-05-20T16:36:53.730Z,99.90
2023-05-20T16:39:39.036Z,99.90
2023-05-20T16:42:13.828Z,99.90
2023-05-20T16:45:02.158Z,99.90
2023-05-20T16:47:31.601Z,99.90
2023-05-20T16:50:02.552Z,99.90
2023-05-20T16:52:34.184Z,99.90
2023-05-20T16:55:14.941Z,99.90
2023-05-20T16:57:46.137Z,99.90
2023-05-20T17:03:15.408Z,99.90
2023-05-20T17:05:55.244Z,99.90
2023-05-20T17:08:22.722Z,99.90
2023-05-20T17:10:56.540Z,99.90
2023-05-20T17:13:23.868Z,99.90
2023-05-20T17:15:51.289Z,99.90
2023-05-20T17:18:18.709Z,99.90
2023-05-20T17:20:53.345Z,99.90
2023-05-20T17:23:20.801Z,99.90
2023-05-20T17:25:48.137Z,99.90
2023-05-20T17:28:15.626Z,99.90
2023-05-20T17:30:42.920Z,99.90
2023-05-20T17:33:11.042Z,99.90
2023-05-20T17:35:38.458Z,99.90
2023-05-20T17:38:05.918Z,99.90
2023-05-20T17:40:33.573Z,99.90
2023-05-20T17:43:01.216Z,99.90
2023-05-20T17:45:28.642Z,99.90
2023-05-20T17:47:56.110Z,99.90
2023-05-20T17:50:23.685Z,99.90
2023-05-20T17:52:53.817Z,99.90
2023-05-20T17:55:23.125Z,99.90
2023-05-20T17:57:52.715Z,99.90
2023-05-20T18:00:21.513Z,99.90
2023-05-20T18:02:49.336Z,99.90
2023-05-20T18:05:16.997Z,1.00
2023-05-20T18:07:44.379Z,1.00
2023-05-20T18:10:17.416Z,1.00
2023-05-20T18:12:45.575Z,1.00
2023-05-20T18:15:17.903Z,1.00
2023-05-20T18:17:54.804Z,1.00
2023-05-20T18:20:28.981Z,1.00
2023-05-20T18:23:03.642Z,1.00
2023-05-20T18:25:36.419Z,1.00
2023-05-20T18:28:08.858Z,1.00
2023-05-20T18:30:38.802Z,1.00
2023-05-20T18:33:19.301Z,1.00
2023-05-20T18:35:48.225Z,1.00
2023-05-20T18:38:44.718Z,1.00
2023-05-20T18:41:15.158Z,21.20
2023-05-20T18:43:45.016Z,99.90
2023-05-20T18:46:12.438Z,1.00
2023-05-20T18:48:41.931Z,1.00
2023-05-20T18:51:12.552Z,99.90
2023-05-20T18:53:40.122Z,1.00
2023-05-20T18:56:07.665Z,1.00
2023-05-20T18:58:37.993Z,1.00
2023-05-20T19:01:05.846Z,99.90
2023-05-20T19:03:34.372Z,1.00
2023-05-20T19:06:14.214Z,1.00
2023-05-20T19:08:45.444Z,1.00
2023-05-20T19:11:14.844Z,33.00
2023-05-20T19:13:45.040Z,99.90
2023-05-20T19:16:14.398Z,1.00
2023-05-20T19:18:43.798Z,1.00
2023-05-20T19:21:11.208Z,1.00
2023-05-20T19:23:51.738Z,99.90
2023-05-20T19:26:39.769Z,1.00
2023-05-20T19:29:15.064Z,1.00
2023-05-20T19:31:56.004Z,1.00
2023-05-20T19:34:42.668Z,1.00
2023-05-20T19:40:22.106Z,1.00
2023-05-20T19:42:52.624Z,1.00
2023-05-20T19:45:21.957Z,1.00
2023-05-20T19:47:50.524Z,99.90
2023-05-20T19:50:17.993Z,1.00
2023-05-20T19:52:45.356Z,1.00
2023-05-20T19:55:12.946Z,1.00
2023-05-20T19:57:40.929Z,99.90
2023-05-20T20:00:11.249Z,99.90
2023-05-20T20:02:38.706Z,1.00
2023-05-20T20:05:07.361Z,1.00
2023-05-20T20:07:34.728Z,2.50
2023-05-20T20:10:02.171Z,99.90
2023-05-20T20:12:29.536Z,99.90
2023-05-20T20:14:56.998Z,1.00
2023-05-20T20:17:24.893Z,1.00
2023-05-20T20:19:55.349Z,1.00
2023-05-20T20:22:22.676Z,1.00
2023-05-20T20:24:50.145Z,48.60
2023-05-20T20:27:19.187Z,99.90
2023-05-20T20:29:46.668Z,1.00
2023-05-20T20:32:14.092Z,1.00
2023-05-20T20:34:42.002Z,1.00
2023-05-20T20:37:09.798Z,1.00
2023-05-20T20:39:37.310Z,12.90
2023-05-20T20:42:04.990Z,1.00
2023-05-20T20:44:32.494Z,1.00
2023-05-20T20:46:59.994Z,99.90
2023-05-20T20:49:28.508Z,99.90
2023-05-20T20:51:56.319Z,1.00
2023-05-20T20:54:23.654Z,1.00
2023-05-20T20:56:51.854Z,1.00
2023-05-20T20:59:21.907Z,1.00
2023-05-20T21:01:49.481Z,1.00
2023-05-20T21:04:17.288Z,1.00
2023-05-20T21:06:48.493Z,1.00
2023-05-20T21:09:16.294Z,1.00
2023-05-20T21:11:45.153Z,24.00
2023-05-20T21:14:13.244Z,99.90
2023-05-20T21:16:42.221Z,99.90
2023-05-20T21:19:12.390Z,99.90
2023-05-20T21:21:39.753Z,99.90
2023-05-20T21:24:07.221Z,99.90
2023-05-20T21:26:34.572Z,99.90
2023-05-20T21:29:01.980Z,1.00
2023-05-20T21:31:29.334Z,1.00
2023-05-20T21:33:56.795Z,1.00
2023-05-20T21:36:24.230Z,1.00
2023-05-20T21:38:51.638Z,1.00
2023-05-20T21:41:18.964Z,1.00
2023-05-20T21:43:46.317Z,1.00
2023-05-20T21:46:13.895Z,1.00
2023-05-20T21:48:43.200Z,1.00
2023-05-20T21:51:10.643Z,1.00
2023-05-20T21:53:38.032Z,1.00
2023-05-20T21:56:05.611Z,1.00
2023-05-20T21:58:33.314Z,1.00
2023-05-20T22:01:00.709Z,1.00
2023-05-20T22:03:32.939Z,1.00
2023-05-20T22:06:00.836Z,1.00
2023-05-20T22:08:30.817Z,1.00
2023-05-20T22:10:59.369Z,1.00
2023-05-20T22:13:26.928Z,1.00
2023-05-20T22:15:54.294Z,1.00
2023-05-20T22:18:23.127Z,1.00
2023-05-20T22:20:50.619Z,1.00
2023-05-20T22:23:18.008Z,1.00
2023-05-20T22:25:45.547Z,1.00
2023-05-20T22:28:13.189Z,1.00
2023-05-20T22:30:40.781Z,1.00
2023-05-20T22:33:08.297Z,1.00
2023-05-20T22:35:36.055Z,1.00
2023-05-20T22:38:03.676Z,1.00
2023-05-20T22:40:30.967Z,1.00
2023-05-20T22:42:58.312Z,1.00
2023-05-20T22:45:26.397Z,1.00
2023-05-20T22:47:54.265Z,1.00
2023-05-20T22:50:23.930Z,1.00
2023-05-20T22:52:51.336Z,1.00
2023-05-20T22:55:18.795Z,1.00
2023-05-20T22:57:46.152Z,1.00
2023-05-20T23:00:15.454Z,1.00
2023-05-20T23:02:45.653Z,1.00
2023-05-20T23:05:13.105Z,1.00
2023-05-20T23:07:40.598Z,1.00
2023-05-20T23:10:08.275Z,1.00
2023-05-20T23:12:35.864Z,1.00
2023-05-20T23:15:03.351Z,1.00
2023-05-20T23:17:30.866Z,1.00
2023-05-20T23:19:58.277Z,1.00
2023-05-20T23:22:25.955Z,1.00
2023-05-20T23:24:53.335Z,1.00
2023-05-20T23:27:20.650Z,1.00
2023-05-20T23:29:48.009Z,1.00
2023-05-20T23:32:15.357Z,1.00
2023-05-20T23:34:43.520Z,1.00
2023-05-20T23:37:10.885Z,1.00
2023-05-20T23:39:38.317Z,1.00
2023-05-20T23:42:05.798Z,1.00
2023-05-20T23:44:33.115Z,1.00
2023-05-20T23:47:00.928Z,1.00
2023-05-20T23:49:29.695Z,1.00
2023-05-20T23:51:57.109Z,1.00
2023-05-20T23:54:24.460Z,1.00
2023-05-20T23:56:51.985Z,1.00
2023-05-20T23:59:19.303Z,1.00
